createdAt,value
2023-01-04T00:00:52.792Z,101929.13
2023-01-04T00:03:19.371Z,101919.44
2023-01-04T00:05:45.927Z,101921.22
2023-01-04T00:08:12.387Z,101915.00
2023-01-04T00:10:39.042Z,101915.78
2023-01-04T00:13:05.654Z,101905.94
2023-01-04T00:15:32.197Z,101903.34
2023-01-04T00:17:58.734Z,101905.88
2023-01-04T00:20:25.145Z,101910.31
2023-01-04T00:22:51.576Z,101893.41
2023-01-04T00:25:18.158Z,101894.28
2023-01-04T00:27:44.634Z,101888.06
2023-01-04T00:30:11.537Z,101888.06
2023-01-04T00:32:37.890Z,101871.38
2023-01-04T00:35:04.595Z,101876.59
2023-01-04T00:37:31.439Z,101873.81
2023-01-04T00:39:57.902Z,101850.69
2023-01-04T00:42:24.367Z,101854.28
2023-01-04T00:44:50.803Z,101846.38
2023-01-04T00:47:17.287Z,101842.69
2023-01-04T00:49:43.718Z,101839.19
2023-01-04T00:52:10.234Z,101848.03
2023-01-04T00:54:36.701Z,101842.69
2023-01-04T00:57:05.197Z,101842.69
2023-01-04T00:59:31.601Z,101830.38
2023-01-04T01:01:58.199Z,101816.25
2023-01-04T01:04:24.877Z,101813.56
2023-01-04T01:06:52.371Z,101817.81
2023-01-04T01:09:22.585Z,101814.22
2023-01-04T01:11:49.216Z,101809.81
2023-01-04T01:14:21.682Z,101808.88
2023-01-04T01:17:03.951Z,101798.22
2023-01-04T01:19:30.535Z,101809.84
2023-01-04T01:21:58.319Z,101788.59
2023-01-04T01:24:24.978Z,101804.47
2023-01-04T01:26:51.413Z,101800.13
2023-01-04T01:29:17.897Z,101793.81
2023-01-04T01:31:44.704Z,101800.91
2023-01-04T01:34:11.245Z,101790.31
2023-01-04T01:36:37.824Z,101791.22
2023-01-04T01:39:05.693Z,101802.78
2023-01-04T01:41:34.287Z,101798.28
2023-01-04T01:44:41.727Z,101788.66
2023-01-04T01:47:38.344Z,101784.31
2023-01-04T01:50:10.181Z,101786.94
2023-01-04T01:52:38.957Z,101776.19
2023-01-04T01:55:08.641Z,101784.22
2023-01-04T01:57:38.204Z,101776.19
2023-01-04T02:00:09.846Z,101769.13
2023-01-04T02:02:37.864Z,101773.53
2023-01-04T02:05:04.793Z,101778.88
2023-01-04T02:07:31.403Z,101770.84
2023-01-04T02:09:58.852Z,101763.84
2023-01-04T02:12:25.815Z,101773.59
2023-01-04T02:14:52.325Z,101783.31
2023-01-04T02:17:40.574Z,101767.50
2023-01-04T02:20:36.201Z,101772.75
2023-01-04T02:23:37.922Z,101763.09
2023-01-04T02:26:18.777Z,101767.41
2023-01-04T02:29:23.262Z,101761.31
2023-01-04T02:31:53.656Z,101762.16
2023-01-04T02:34:45.910Z,101748.78
2023-01-04T02:37:43.395Z,101738.09
2023-01-04T02:40:16.282Z,101747.56
2023-01-04T02:43:16.312Z,101737.44
2023-01-04T02:45:51.590Z,101727.63
2023-01-04T02:48:36.615Z,101721.31
2023-01-04T02:51:03.086Z,101723.88
2023-01-04T02:53:37.866Z,101720.22
2023-01-04T02:56:51.570Z,101709.66
2023-01-04T02:59:38.911Z,101707.00
2023-01-04T03:02:33.289Z,101695.28
2023-01-04T03:05:33.848Z,101697.09
2023-01-04T03:08:16.554Z,101692.69
2023-01-04T03:10:52.949Z,101686.41
2023-01-04T03:13:42.564Z,101702.44
2023-01-04T03:16:20.608Z,101698.06
2023-01-04T03:18:51.410Z,101687.34
2023-01-04T03:21:20.748Z,101697.00
2023-01-04T03:24:08.401Z,101697.00
2023-01-04T03:27:00.279Z,101689.09
2023-01-04T03:29:58.293Z,101678.47
2023-01-04T03:33:24.814Z,101671.44
2023-01-04T03:36:12.053Z,101677.59
2023-01-04T03:39:04.437Z,101675.72
2023-01-04T03:41:58.503Z,101657.97
2023-01-04T03:44:49.831Z,101663.31
2023-01-04T03:47:44.198Z,101663.31
2023-01-04T03:50:21.870Z,101666.00
2023-01-04T03:52:51.188Z,101666.91
2023-01-04T03:55:18.627Z,101666.78
2023-01-04T03:57:46.426Z,101666.78
2023-01-04T04:00:16.734Z,101665.88
2023-01-04T04:02:45.891Z,101650.75
2023-01-04T04:05:36.542Z,101649.03
2023-01-04T04:08:21.751Z,101660.53
2023-01-04T04:10:48.266Z,101644.66
2023-01-04T04:13:14.726Z,101649.03
2023-01-04T04:15:41.435Z,101641.84
2023-01-04T04:18:08.053Z,101654.25
2023-01-04T04:20:35.202Z,101639.09
2023-01-04T04:23:01.845Z,101627.53
2023-01-04T04:25:28.411Z,101633.00
2023-01-04T04:27:54.894Z,101634.63
2023-01-04T04:30:21.530Z,101639.91
2023-01-04T04:32:47.964Z,101625.69
2023-01-04T04:35:14.542Z,101633.72
2023-01-04T04:37:40.945Z,101618.59
2023-01-04T04:40:27.983Z,101611.75
2023-01-04T04:42:54.381Z,101625.41
2023-01-04T04:45:20.749Z,101599.44
2023-01-04T04:47:47.077Z,101611.63
2023-01-04T04:50:13.491Z,101600.00
2023-01-04T04:52:41.591Z,101589.22
2023-01-04T04:55:08.321Z,101577.78
2023-01-04T04:57:34.791Z,101575.84
2023-01-04T05:00:01.206Z,101562.56
2023-01-04T05:02:27.778Z,101566.19
2023-01-04T05:04:54.399Z,101556.34
2023-01-04T05:07:20.751Z,101570.59
2023-01-04T05:09:47.149Z,101561.63
2023-01-04T05:12:32.243Z,101554.44
2023-01-04T05:14:58.608Z,101554.84
2023-01-04T05:17:24.960Z,101558.28
2023-01-04T05:19:51.333Z,101563.41
2023-01-04T05:22:17.706Z,101548.22
2023-01-04T05:24:44.083Z,101548.13
2023-01-04T05:27:10.451Z,101551.69
2023-01-04T05:29:55.676Z,101559.81
2023-01-04T05:32:22.046Z,101562.44
2023-01-04T05:34:48.411Z,101563.31
2023-01-04T05:37:14.835Z,101545.56
2023-01-04T05:39:41.811Z,101549.97
2023-01-04T05:42:26.578Z,101552.63
2023-01-04T05:44:54.196Z,101548.28
2023-01-04T05:47:21.470Z,101554.38
2023-01-04T05:49:48.541Z,101550.78
2023-01-04T05:52:15.153Z,101547.28
2023-01-04T05:54:41.597Z,101539.19
2023-01-04T05:57:08.321Z,101539.16
2023-01-04T05:59:41.851Z,101531.25
2023-01-04T06:02:18.723Z,101529.53
2023-01-04T06:04:45.326Z,101520.56
2023-01-04T06:07:11.933Z,101523.13
2023-01-04T06:09:38.423Z,101521.31
2023-01-04T06:12:05.102Z,101513.38
2023-01-04T06:14:31.634Z,101522.19
2023-01-04T06:16:59.057Z,101513.19
2023-01-04T06:19:25.819Z,101508.03
2023-01-04T06:21:52.392Z,101512.38
2023-01-04T06:24:19.185Z,101517.78
2023-01-04T06:26:46.225Z,101513.28
2023-01-04T06:29:13.304Z,101523.00
2023-01-04T06:31:39.750Z,101522.19
2023-01-04T06:34:06.182Z,101518.63
2023-01-04T06:36:32.684Z,101515.00
2023-01-04T06:39:00.240Z,101515.97
2023-01-04T06:41:26.917Z,101507.03
2023-01-04T06:43:53.470Z,101523.81
2023-01-04T06:46:20.509Z,101511.50
2023-01-04T06:48:47.075Z,101529.16
2023-01-04T06:51:13.477Z,101516.63
2023-01-04T06:53:40.123Z,101512.31
2023-01-04T06:56:08.989Z,101514.88
2023-01-04T06:58:38.745Z,101521.94
2023-01-04T07:01:05.764Z,101496.22
2023-01-04T07:03:32.699Z,101511.25
2023-01-04T07:05:59.227Z,101506.03
2023-01-04T07:08:25.922Z,101511.16
2023-01-04T07:10:52.337Z,101498.84
2023-01-04T07:13:19.200Z,101509.53
2023-01-04T07:15:45.665Z,101504.94
2023-01-04T07:18:12.518Z,101496.84
2023-01-04T07:20:39.349Z,101492.63
2023-01-04T07:23:07.265Z,101509.41
2023-01-04T07:25:34.121Z,101505.81
2023-01-04T07:28:00.680Z,101504.06
2023-01-04T07:30:27.119Z,101504.97
2023-01-04T07:32:54.877Z,101495.25
2023-01-04T07:35:22.534Z,101500.47
2023-01-04T07:37:55.633Z,101503.06
2023-01-04T07:40:24.735Z,101477.34
2023-01-04T07:42:56.991Z,101482.56
2023-01-04T07:45:23.963Z,101483.50
2023-01-04T07:47:50.404Z,101476.34
2023-01-04T07:50:16.904Z,101478.16
2023-01-04T07:52:43.328Z,101474.56
2023-01-04T07:55:09.972Z,101449.06
2023-01-04T07:57:36.409Z,101488.66
2023-01-04T08:00:04.088Z,101482.50
2023-01-04T08:02:30.601Z,101470.09
2023-01-04T08:04:57.168Z,101484.31
2023-01-04T08:07:23.917Z,101464.63
2023-01-04T08:09:50.389Z,101470.81
2023-01-04T08:12:16.774Z,101457.59
2023-01-04T08:14:43.212Z,101460.13
2023-01-04T08:17:09.955Z,101451.13
2023-01-04T08:19:36.377Z,101455.34
2023-01-04T08:22:03.052Z,101465.06
2023-01-04T08:24:29.469Z,101442.81
2023-01-04T08:26:56.252Z,101446.44
2023-01-04T08:29:22.826Z,101467.41
2023-01-04T08:31:49.484Z,101468.28
2023-01-04T08:34:16.404Z,101461.31
2023-01-04T08:36:50.920Z,101461.81
2023-01-04T08:39:17.551Z,101455.94
2023-01-04T08:41:59.476Z,101460.34
2023-01-04T08:44:27.965Z,101468.91
2023-01-04T08:46:55.015Z,101468.78
2023-01-04T08:49:22.754Z,101463.28
2023-01-04T08:51:49.715Z,101461.56
2023-01-04T08:54:16.365Z,101465.78
2023-01-04T08:56:43.714Z,101448.72
2023-01-04T08:59:11.555Z,101455.84
2023-01-04T09:01:39.300Z,101455.72
2023-01-04T09:04:06.549Z,101451.16
2023-01-04T09:06:33.499Z,101460.13
2023-01-04T09:09:00.124Z,101459.84
2023-01-04T09:11:27.413Z,101448.22
2023-01-04T09:14:06.737Z,101448.16
2023-01-04T09:16:35.051Z,101451.69
2023-01-04T09:19:01.570Z,101446.28
2023-01-04T09:21:28.207Z,101449.03
2023-01-04T09:23:57.214Z,101463.13
2023-01-04T09:26:24.594Z,101468.28
2023-01-04T09:28:53.056Z,101457.53
2023-01-04T09:31:25.544Z,101474.34
2023-01-04T09:36:39.022Z,101473.22
2023-01-04T09:39:05.657Z,101482.63
2023-01-04T09:41:43.044Z,101480.66
2023-01-04T09:44:09.367Z,101474.31
2023-01-04T09:46:54.251Z,101470.69
2023-01-04T09:49:37.903Z,101480.53
2023-01-04T09:52:14.287Z,101479.41
2023-01-04T09:54:40.517Z,101508.53
2023-01-04T09:57:18.649Z,101481.50
2023-01-04T09:59:46.558Z,101489.19
2023-01-04T10:02:18.982Z,101492.63
2023-01-04T10:04:48.936Z,101478.38
2023-01-04T10:07:27.481Z,101484.44
2023-01-04T10:09:54.357Z,101495.16
2023-01-04T10:12:23.496Z,101494.88
2023-01-04T10:15:03.458Z,101485.13
2023-01-04T10:23:46.117Z,101471.34
2023-01-04T10:26:23.134Z,101462.25
2023-01-04T10:29:17.557Z,101457.47
2023-01-04T10:31:50.139Z,101460.88
2023-01-04T10:34:22.556Z,101461.56
2023-01-04T10:36:51.444Z,101449.97
2023-01-04T10:39:26.961Z,101454.22
2023-01-04T10:42:00.426Z,101455.88
2023-01-04T10:44:38.785Z,101452.97
2023-01-04T10:47:15.405Z,101440.41
2023-01-04T10:49:46.889Z,101437.59
2023-01-04T10:52:23.270Z,101432.09
2023-01-04T10:55:09.791Z,101430.13
2023-01-04T10:57:39.091Z,101423.38
2023-01-04T11:00:11.318Z,101432.88
2023-01-04T11:02:47.040Z,101419.34
2023-01-04T11:05:29.536Z,101414.84
2023-01-04T11:08:03.205Z,101404.84
2023-01-04T11:10:49.583Z,101416.47
2023-01-04T11:13:16.140Z,101409.34
2023-01-04T11:15:43.805Z,101411.00
2023-01-04T11:18:13.876Z,101419.84
2023-01-04T11:20:40.904Z,101423.25
2023-01-04T11:23:20.583Z,101406.22
2023-01-04T11:25:55.727Z,101414.28
2023-01-04T11:28:41.417Z,101418.19
2023-01-04T11:31:07.724Z,101402.69
2023-01-04T11:33:57.823Z,101423.25
2023-01-04T11:36:42.100Z,101425.94
2023-01-04T11:39:26.369Z,101407.19
2023-01-04T11:42:03.325Z,101403.31
2023-01-04T11:44:32.222Z,101415.78
2023-01-04T11:47:19.279Z,101393.41
2023-01-04T11:49:45.775Z,101402.41
2023-01-04T11:52:27.531Z,101412.97
2023-01-04T11:54:54.171Z,101390.81
2023-01-04T11:57:21.470Z,101396.75
2023-01-04T12:00:13.669Z,101392.31
2023-01-04T12:03:00.943Z,101403.97
2023-01-04T12:05:32.611Z,101402.09
2023-01-04T12:08:02.391Z,101384.13
2023-01-04T12:10:29.220Z,101387.66
2023-01-04T12:12:57.190Z,101384.84
2023-01-04T12:16:01.568Z,101387.53
2023-01-04T12:18:37.499Z,101372.31
2023-01-04T12:21:04.258Z,101371.41
2023-01-04T12:23:33.474Z,101379.19
2023-01-04T12:26:01.246Z,101376.59
2023-01-04T12:28:43.858Z,101369.34
2023-01-04T12:31:20.144Z,101363.81
2023-01-04T12:33:56.484Z,101369.13
2023-01-04T12:36:38.191Z,101369.19
2023-01-04T12:39:16.604Z,101351.22
2023-01-04T12:42:01.381Z,101371.72
2023-01-04T12:44:37.331Z,101378.03
2023-01-04T12:47:39.661Z,101372.66
2023-01-04T12:50:23.185Z,101362.00
2023-01-04T12:53:28.824Z,101366.44
2023-01-04T12:55:54.968Z,101358.25
2023-01-04T12:58:42.387Z,101349.88
2023-01-04T13:01:25.551Z,101356.13
2023-01-04T13:04:02.535Z,101360.53
2023-01-04T13:06:39.180Z,101358.81
2023-01-04T13:09:15.944Z,101347.00
2023-01-04T13:12:04.693Z,101346.91
2023-01-04T13:14:39.153Z,101341.63
2023-01-04T13:17:13.259Z,101336.13
2023-01-04T13:19:40.700Z,101342.41
2023-01-04T13:22:17.298Z,101338.00
2023-01-04T13:24:45.010Z,101344.91
2023-01-04T13:27:23.396Z,101354.72
2023-01-04T13:29:51.419Z,101335.97
2023-01-04T13:32:30.487Z,101332.47
2023-01-04T13:35:00.691Z,101339.56
2023-01-04T13:37:36.674Z,101328.84
2023-01-04T13:40:21.576Z,101337.84
2023-01-04T13:42:51.951Z,101336.13
2023-01-04T13:45:29.930Z,101337.84
2023-01-04T13:47:59.770Z,101335.16
2023-01-04T13:50:29.179Z,101328.06
2023-01-04T13:53:06.360Z,101325.53
2023-01-04T13:55:37.075Z,101335.31
2023-01-04T13:58:16.953Z,101330.91
2023-01-04T14:00:53.264Z,101315.84
2023-01-04T14:03:26.931Z,101328.22
2023-01-04T14:05:59.867Z,101322.06
2023-01-04T14:08:40.337Z,101318.78
2023-01-04T14:11:40.222Z,101329.41
2023-01-04T14:14:37.166Z,101335.78
2023-01-04T14:17:14.786Z,101339.41
2023-01-04T14:19:45.969Z,101334.69
2023-01-04T14:22:49.313Z,101345.41
2023-01-04T14:25:34.200Z,101338.25
2023-01-04T14:28:19.046Z,101339.09
2023-01-04T14:30:47.753Z,101340.75
2023-01-04T14:33:26.662Z,101336.25
2023-01-04T14:36:14.840Z,101324.69
2023-01-04T14:38:49.725Z,101337.13
2023-01-04T14:41:35.639Z,101339.00
2023-01-04T14:44:24.116Z,101332.88
2023-01-04T14:47:03.924Z,101332.88
2023-01-04T14:49:31.604Z,101335.56
2023-01-04T14:52:00.851Z,101332.78
2023-01-04T14:54:29.454Z,101328.44
2023-01-04T14:56:59.426Z,101327.53
2023-01-04T14:59:26.808Z,101325.91
2023-01-04T15:01:55.450Z,101330.41
2023-01-04T15:04:22.306Z,101328.44
2023-01-04T15:06:54.825Z,101323.22
2023-01-04T15:09:21.730Z,101333.09
2023-01-04T15:11:48.321Z,101341.13
2023-01-04T15:14:14.865Z,101339.50
2023-01-04T15:16:41.528Z,101319.94
2023-01-04T15:19:08.007Z,101325.28
2023-01-04T15:21:40.665Z,101330.81
2023-01-04T15:24:09.524Z,101325.34
2023-01-04T15:26:35.961Z,101328.38
2023-01-04T15:29:02.643Z,101330.09
2023-01-04T15:31:34.981Z,101318.44
2023-01-04T15:34:04.907Z,101317.72
2023-01-04T15:36:31.330Z,101326.63
2023-01-04T15:38:58.101Z,101314.31
2023-01-04T15:41:43.384Z,101319.53
2023-01-04T15:44:11.353Z,101317.00
2023-01-04T15:46:40.286Z,101311.66
2023-01-04T15:49:09.438Z,101317.88
2023-01-04T15:51:38.348Z,101320.69
2023-01-04T15:54:04.991Z,101320.63
2023-01-04T15:56:31.341Z,101325.19
2023-01-04T15:58:57.826Z,101324.25
2023-01-04T16:01:24.380Z,101322.59
2023-01-04T16:03:54.028Z,101316.28
2023-01-04T16:06:22.064Z,101320.94
2023-01-04T16:08:50.423Z,101317.25
2023-01-04T16:11:20.525Z,101318.09
2023-01-04T16:13:48.402Z,101311.03
2023-01-04T16:16:15.703Z,101314.63
2023-01-04T16:18:50.638Z,101312.75
2023-01-04T16:21:21.521Z,101321.75
2023-01-04T16:23:54.884Z,101314.63
2023-01-04T16:26:25.224Z,101306.75
2023-01-04T16:28:53.727Z,101314.63
2023-01-04T16:31:24.478Z,101313.84
2023-01-04T16:33:54.325Z,101310.22
2023-01-04T16:36:23.706Z,101322.81
2023-01-04T16:38:50.067Z,101328.25
2023-01-04T16:41:20.773Z,101320.22
2023-01-04T16:43:50.430Z,101320.28
2023-01-04T16:46:20.640Z,101305.97
2023-01-04T16:48:53.075Z,101318.50
2023-01-04T16:51:20.255Z,101315.09
2023-01-04T16:53:47.044Z,101318.72
2023-01-04T16:56:15.568Z,101324.88
2023-01-04T16:58:45.335Z,101320.47
2023-01-04T17:01:17.272Z,101325.03
2023-01-04T17:03:46.285Z,101342.75
2023-01-04T17:06:14.242Z,101355.28
2023-01-04T17:08:41.698Z,101344.72
2023-01-04T17:14:00.637Z,101336.84
2023-01-04T17:16:32.757Z,101350.13
2023-01-04T17:19:01.237Z,101351.84
2023-01-04T17:21:34.252Z,101342.91
2023-01-04T17:24:01.682Z,101349.28
2023-01-04T17:26:30.542Z,101340.44
2023-01-04T17:28:58.846Z,101350.13
2023-01-04T17:31:28.976Z,101339.50
2023-01-04T17:33:55.549Z,101345.78
2023-01-04T17:36:22.628Z,101351.16
2023-01-04T17:38:49.605Z,101352.19
2023-01-04T17:41:26.851Z,101353.19
2023-01-04T17:44:00.266Z,101363.91
2023-01-04T17:46:29.229Z,101384.31
2023-01-04T17:49:21.780Z,101392.34
2023-01-04T17:51:45.960Z,101390.69
2023-01-04T17:54:13.924Z,101382.78
2023-01-04T17:56:40.337Z,101381.84
2023-01-04T17:59:06.902Z,101380.97
2023-01-04T18:01:35.190Z,101387.19
2023-01-04T18:04:02.533Z,101380.94
2023-01-04T18:06:34.529Z,101381.84
2023-01-04T18:09:02.372Z,101381.06
2023-01-04T18:11:29.228Z,101364.19
2023-01-04T18:13:55.810Z,101374.81
2023-01-04T18:16:27.164Z,101382.84
2023-01-04T18:18:55.875Z,101381.13
2023-01-04T18:21:28.617Z,101365.16
2023-01-04T18:29:31.756Z,101388.44
2023-01-04T18:31:58.383Z,101412.53
2023-01-04T18:34:26.404Z,101408.91
2023-01-04T18:36:53.061Z,101410.94
2023-01-04T18:39:19.461Z,101424.25
2023-01-04T18:41:46.224Z,101445.69
2023-01-04T18:44:32.001Z,101434.09
2023-01-04T18:46:59.348Z,101411.97
2023-01-04T18:49:25.770Z,101402.13
2023-01-04T18:51:52.231Z,101387.81
2023-01-04T18:54:20.742Z,101391.25
2023-01-04T18:56:47.764Z,101378.81
2023-01-04T18:59:17.210Z,101380.69
2023-01-04T19:01:45.381Z,101388.59
2023-01-04T19:04:12.735Z,101397.56
2023-01-04T19:06:40.384Z,101392.97
2023-01-04T19:09:07.621Z,101388.66
2023-01-04T19:11:35.043Z,101393.31
2023-01-04T19:14:02.654Z,101389.53
2023-01-04T19:16:32.264Z,101379.91
2023-01-04T19:19:00.235Z,101411.91
2023-01-04T19:21:27.836Z,101414.56
2023-01-04T19:23:54.683Z,101417.31
2023-01-04T19:26:22.324Z,101423.66
2023-01-04T19:28:51.293Z,101425.28
2023-01-04T19:31:20.879Z,101415.44
2023-01-04T19:33:47.752Z,101416.44
2023-01-04T19:36:16.404Z,101416.50
2023-01-04T19:38:42.843Z,101402.25
2023-01-04T19:41:16.436Z,101433.31
2023-01-04T19:43:43.013Z,101434.25
2023-01-04T19:46:11.789Z,101423.53
2023-01-04T19:48:38.384Z,101446.72
2023-01-04T19:51:16.327Z,101431.56
2023-01-04T19:53:45.487Z,101432.50
2023-01-04T19:56:14.215Z,101428.88
2023-01-04T19:58:40.644Z,101424.47
2023-01-04T20:01:07.512Z,101411.22
2023-01-04T20:03:34.089Z,101412.97
2023-01-04T20:06:03.419Z,101429.84
2023-01-04T20:08:29.864Z,101413.03
2023-01-04T20:10:59.006Z,101433.38
2023-01-04T20:13:26.473Z,101430.84
2023-01-04T20:15:52.934Z,101414.72
2023-01-04T20:18:20.482Z,101411.22
2023-01-04T20:20:47.643Z,101419.19
2023-01-04T20:23:15.262Z,101424.53
2023-01-04T20:25:43.673Z,101425.47
2023-01-04T20:28:10.528Z,101424.72
2023-01-04T20:30:37.941Z,101424.72
2023-01-04T20:33:06.362Z,101432.66
2023-01-04T20:35:33.260Z,101422.13
2023-01-04T20:37:59.708Z,101441.63
2023-01-04T20:40:27.417Z,101456.84
2023-01-04T20:43:13.060Z,101460.38
2023-01-04T20:45:43.975Z,101466.63
2023-01-04T20:48:10.859Z,101460.44
2023-01-04T20:50:37.471Z,101455.94
2023-01-04T20:53:04.414Z,101438.16
2023-01-04T20:55:30.808Z,101438.19
2023-01-04T20:57:57.519Z,101445.41
2023-01-04T21:00:23.986Z,101435.53
2023-01-04T21:02:51.179Z,101441.75
2023-01-04T21:05:17.834Z,101456.13
2023-01-04T21:07:44.339Z,101448.22
2023-01-04T21:10:10.694Z,101467.69
2023-01-04T21:12:38.360Z,101456.03
2023-01-04T21:15:05.028Z,101444.00
2023-01-04T21:17:31.593Z,101452.59
2023-01-04T21:19:57.956Z,101460.75
2023-01-04T21:22:25.807Z,101457.94
2023-01-04T21:24:52.255Z,101452.72
2023-01-04T21:27:18.730Z,101457.06
2023-01-04T21:29:45.481Z,101465.97
2023-01-04T21:32:11.951Z,101465.97
2023-01-04T21:34:38.530Z,101468.66
2023-01-04T21:37:05.043Z,101459.66
2023-01-04T21:39:31.574Z,101469.41
2023-01-04T21:41:58.044Z,101456.94
2023-01-04T21:44:24.663Z,101463.16
2023-01-04T21:46:51.139Z,101463.16
2023-01-04T21:49:17.657Z,101464.97
2023-01-04T21:51:44.147Z,101458.72
2023-01-04T21:54:10.766Z,101469.38
2023-01-04T21:56:37.226Z,101459.56
2023-01-04T21:59:03.753Z,101466.63
2023-01-04T22:01:34.938Z,101461.41
2023-01-04T22:04:02.171Z,101465.78
2023-01-04T22:06:29.232Z,101464.00
2023-01-04T22:08:55.870Z,101465.03
2023-01-04T22:11:22.237Z,101470.28
2023-01-04T22:13:50.302Z,101461.28
2023-01-04T22:16:17.659Z,101455.06
2023-01-04T22:18:48.615Z,101456.84
2023-01-04T22:21:17.511Z,101455.13
2023-01-04T22:23:43.980Z,101450.59
2023-01-04T22:26:10.524Z,101456.88
2023-01-04T22:28:37.525Z,101462.25
2023-01-04T22:31:10.747Z,101466.63
2023-01-04T22:33:38.480Z,101469.31
2023-01-04T22:36:19.152Z,101467.53
2023-01-04T22:38:48.478Z,101471.31
2023-01-04T22:41:18.841Z,101477.34
2023-01-04T22:43:45.559Z,101475.63
2023-01-04T22:46:14.650Z,101477.41
2023-01-04T22:48:41.241Z,101474.72
2023-01-04T22:51:08.848Z,101482.72
2023-01-04T22:53:35.925Z,101485.44
2023-01-04T22:56:19.411Z,101495.28
2023-01-04T22:58:52.975Z,101496.16
2023-01-04T23:01:21.241Z,101500.63
2023-01-04T23:03:48.558Z,101502.63
2023-01-04T23:06:15.525Z,101511.34
2023-01-04T23:08:42.068Z,101511.34
2023-01-04T23:11:12.762Z,101514.00
2023-01-04T23:13:39.686Z,101512.25
2023-01-04T23:16:11.414Z,101494.41
2023-01-04T23:18:38.540Z,101503.44
2023-01-04T23:21:05.597Z,101520.28
2023-01-04T23:23:34.846Z,101510.47
2023-01-04T23:26:12.048Z,101522.06
2023-01-04T23:28:38.509Z,101538.16
2023-01-04T23:31:08.958Z,101528.47
2023-01-04T23:33:36.711Z,101534.63
2023-01-04T23:36:12.226Z,101533.75
2023-01-04T23:38:40.881Z,101536.34
2023-01-04T23:41:07.867Z,101523.13
2023-01-04T23:43:37.951Z,101525.63
2023-01-04T23:46:16.485Z,101531.16
2023-01-04T23:48:43.524Z,101529.41
2023-01-04T23:51:12.121Z,101534.63
2023-01-04T23:53:38.501Z,101526.72
2023-01-04T23:56:07.684Z,101532.03
2023-01-04T23:58:34.580Z,101523.19
